Report METAR

 

LIBV - Gioia Del Colle, Italy
Distanza dalla stazione: SSE 15km
Dati ricevuti: 18/04/2019 17:55
Sereno
Sereno
 Vento da N
Vento: N 19 km/h
Temperatura: 15°C
P.to Rugiada: 2°C
Umidità: 42%
Barometro: 1021 hPa
Riassunto: Sereno
Visibilità: superiore a 10 km
2019/04/18 15:55 LIBV 181555Z 01010KT CAVOK 15/02 Q1021 RMK SKC VIS MIN 9999 WIND THR32 36009KT WIND THR14 01011KT BLU
LIBD - Bari/Palese Macc, Italy
Distanza dalla stazione: NNO 26km
Dati ricevuti: 18/04/2019 17:50
Sereno
Sereno
 Vento da N
Vento: N 13 km/h
Temperatura: 17°C
P.to Rugiada: 8°C
Umidità: 56%
Barometro: 1022 hPa
Riassunto: Sereno
Visibilità: superiore a 10 km
2019/04/18 15:50 LIBD 181550Z 36007KT 330V030 CAVOK 17/08 Q1022
 
LIBH - Marina Di Ginosa, Italy
Distanza dalla stazione: S 53km
Dati ricevuti: 18/04/2019 17:55
Sereno
Sereno
 Vento da N
Vento: N 15 km/h
Temperatura: 20°C
P.to Rugiada: 5°C
Umidità: 38%
Barometro: 1020 hPa
Riassunto: Sereno
Visibilità: superiore a 10 km
2019/04/18 15:55 LIBH 181555Z 36008KT CAVOK 20/05 Q1020 RMK SKC QUK 1 QUL 0 VIS MAR 20 KM VIS MIN 9999
LIBG - Grottaglie(Civ/A, Italy
Distanza dalla stazione: SE 61km
Dati ricevuti: 18/04/2019 17:50
Sereno
Sereno
 Vento da NNE
Vento: NNE 19 km/h
Temperatura: 18°C
P.to Rugiada: 5°C
Umidità: 43%
Barometro: 1021 hPa
Riassunto: Sereno
Visibilità: superiore a 10 km
2019/04/18 15:50 LIBG 181550Z 03010KT CAVOK 18/05 Q1021
 
LIBR - Brindisi/Casale, Italy
Distanza dalla stazione: ESE 96km
Dati ricevuti: 18/04/2019 17:50
Sereno
Sereno
 Vento da NNO
Vento: NNO 15 km/h
Temperatura: 17°C
P.to Rugiada: 10°C
Umidità: 64%
Barometro: 1022 hPa
Riassunto: Sereno
Visibilità: superiore a 10 km
2019/04/18 15:50 LIBR 181550Z 34008KT CAVOK 17/10 Q1022
LIBA - Amendola (it-Afb, Italy
Distanza dalla stazione: NO 118km
Dati ricevuti: 18/04/2019 17:55
Poche nubi
Poche nubi
 Vento da SE
Vento: SE 13 km/h
Temperatura: 17°C
P.to Rugiada: 6°C
Umidità: 49%
Barometro: 1022 hPa
Nuvole: Poche nubi
Visibilità: 10 km
Dettagli nuvole: Poche nubi 914 m
2019/04/18 15:55 LIBA 181555Z 14007KT 9999 FEW030 17/06 Q1022 RMK FEW VIS MIN 9999 WIND THR11 14007KT WIND THR29 /////KT BLU
 
LIBF - Foggia/Gino Lisa, Italy
Distanza dalla stazione: ONO 126km
Dati ricevuti: 18/04/2019 17:50
Poche nubi
Poche nubi
 Vento da E
Vento: E 4 km/h
Temperatura: 18°C
P.to Rugiada: 7°C
Umidità: 49%
Barometro: 1022 hPa
Nuvole: Poche nubi
Visibilità: 10 km
Dettagli nuvole: Poche nubi 1219 m
2019/04/18 15:50 LIBF 181550Z 10002KT 9999 FEW040 18/07 Q1022
LIBN - Lecce (it-Afb), Italy
Distanza dalla stazione: SE 132km
Dati ricevuti: 18/04/2019 17:55
Sereno
Sereno
 Vento da NNE
Vento: NNE 15 km/h
Temperatura: 17°C
P.to Rugiada: 9°C
Umidità: 59%
Barometro: 1021 hPa
Riassunto: Sereno
Visibilità: superiore a 10 km
2019/04/18 15:55 LIBN 181555Z 03008KT CAVOK 17/09 Q1021 RMK SKC VIS MIN 9999 WIND THR14 04009KT WIND THR32 04009KT BLU